createdAt,value
2023-05-14T00:00:19.863Z,5.97
2023-05-14T00:02:46.404Z,5.95
2023-05-14T00:05:12.931Z,5.80
2023-05-14T00:07:39.379Z,5.85
2023-05-14T00:10:06.773Z,5.43
2023-05-14T00:12:33.280Z,5.70
2023-05-14T00:14:59.745Z,5.22
2023-05-14T00:17:26.603Z,5.50
2023-05-14T00:19:53.092Z,5.68
2023-05-14T00:22:19.795Z,5.90
2023-05-14T00:24:46.237Z,5.72
2023-05-14T00:27:12.725Z,5.65
2023-05-14T00:29:39.150Z,5.87
2023-05-14T00:32:06.161Z,5.93
2023-05-14T00:34:32.652Z,5.03
2023-05-14T00:36:59.076Z,5.43
2023-05-14T00:39:25.482Z,5.93
2023-05-14T00:41:52.050Z,5.47
2023-05-14T00:44:18.407Z,6.25
2023-05-14T00:46:44.929Z,5.97
2023-05-14T00:49:11.494Z,6.22
2023-05-14T00:51:38.500Z,5.78
2023-05-14T00:54:05.269Z,5.87
2023-05-14T00:56:31.882Z,5.95
2023-05-14T00:58:58.546Z,5.18
2023-05-14T01:01:25.405Z,5.97
2023-05-14T01:03:53.460Z,5.60
2023-05-14T01:06:28.831Z,5.77
2023-05-14T01:09:25.252Z,5.47
2023-05-14T01:12:19.358Z,5.43
2023-05-14T01:15:01.835Z,5.18
2023-05-14T01:17:31.988Z,5.85
2023-05-14T01:20:00.279Z,5.33
2023-05-14T01:22:27.021Z,5.50
2023-05-14T01:24:53.406Z,5.80
2023-05-14T01:27:44.217Z,5.63
2023-05-14T01:30:16.776Z,5.70
2023-05-14T01:32:48.082Z,6.23
2023-05-14T01:35:15.593Z,6.00
2023-05-14T01:37:43.986Z,5.78
2023-05-14T01:40:11.552Z,5.88
2023-05-14T01:42:38.881Z,6.30
2023-05-14T01:45:06.027Z,5.50
2023-05-14T01:47:32.588Z,5.93
2023-05-14T01:49:59.073Z,6.07
2023-05-14T01:52:25.576Z,5.82
2023-05-14T01:54:52.083Z,6.90
2023-05-14T01:57:18.541Z,6.00
2023-05-14T01:59:45.037Z,5.88
2023-05-14T02:02:11.404Z,6.10
2023-05-14T02:04:37.897Z,5.78
2023-05-14T02:07:04.636Z,6.50
2023-05-14T02:09:31.071Z,5.97
2023-05-14T02:11:57.561Z,5.68
2023-05-14T02:14:24.029Z,5.53
2023-05-14T02:16:51.358Z,5.40
2023-05-14T02:19:19.805Z,5.90
2023-05-14T02:21:46.230Z,5.70
2023-05-14T02:24:12.629Z,5.50
2023-05-14T02:26:39.130Z,5.60
2023-05-14T02:29:05.694Z,5.47
2023-05-14T02:31:32.155Z,5.25
2023-05-14T02:33:58.621Z,5.20
2023-05-14T02:36:25.025Z,5.70
2023-05-14T02:38:51.379Z,5.97
2023-05-14T02:41:17.891Z,5.82
2023-05-14T02:43:44.427Z,6.55
2023-05-14T02:46:10.835Z,6.57
2023-05-14T02:48:37.219Z,6.20
2023-05-14T02:51:03.868Z,5.93
2023-05-14T02:53:30.474Z,5.75
2023-05-14T02:55:56.942Z,6.20
2023-05-14T02:58:28.142Z,6.20
2023-05-14T03:00:55.067Z,5.97
2023-05-14T03:03:22.302Z,5.85
2023-05-14T03:05:49.300Z,6.55
2023-05-14T03:08:15.698Z,6.55
2023-05-14T03:10:42.195Z,6.83
2023-05-14T03:13:08.731Z,6.70
2023-05-14T03:15:35.128Z,6.68
2023-05-14T03:18:01.695Z,5.75
2023-05-14T03:20:28.198Z,6.35
2023-05-14T03:22:56.138Z,6.20
2023-05-14T03:25:22.833Z,6.00
2023-05-14T03:27:49.298Z,5.90
2023-05-14T03:30:15.745Z,5.72
2023-05-14T03:32:42.874Z,5.10
2023-05-14T03:35:09.457Z,5.80
2023-05-14T03:37:37.134Z,5.57
2023-05-14T03:40:04.041Z,5.75
2023-05-14T03:42:30.429Z,5.50
2023-05-14T03:44:56.909Z,5.90
2023-05-14T03:47:23.483Z,6.10
2023-05-14T03:49:51.028Z,7.95
2023-05-14T03:52:17.472Z,17.73
2023-05-14T03:54:44.024Z,7.90
2023-05-14T03:57:10.552Z,6.30
2023-05-14T03:59:36.941Z,5.90
2023-05-14T04:02:03.506Z,6.72
2023-05-14T04:04:29.983Z,6.15
2023-05-14T04:06:56.370Z,6.45
2023-05-14T04:09:23.355Z,6.00
2023-05-14T04:11:49.809Z,6.40
2023-05-14T04:14:16.316Z,6.63
2023-05-14T04:16:42.839Z,7.30
2023-05-14T04:19:09.336Z,6.93
2023-05-14T04:21:36.027Z,6.90
2023-05-14T04:24:02.586Z,6.43
2023-05-14T04:26:29.006Z,6.15
2023-05-14T04:28:55.689Z,6.43
2023-05-14T04:31:22.135Z,7.30
2023-05-14T04:33:48.716Z,7.32
2023-05-14T04:36:15.975Z,7.03
2023-05-14T04:38:42.431Z,6.47
2023-05-14T04:41:08.927Z,6.15
2023-05-14T04:43:35.396Z,6.32
2023-05-14T04:46:02.449Z,6.38
2023-05-14T04:48:29.013Z,6.70
2023-05-14T04:50:55.447Z,6.70
2023-05-14T04:53:21.886Z,7.00
2023-05-14T04:55:48.290Z,6.22
2023-05-14T04:58:14.676Z,6.88
2023-05-14T05:00:41.382Z,6.93
2023-05-14T05:03:08.788Z,7.22
2023-05-14T05:05:35.454Z,6.97
2023-05-14T05:08:02.113Z,6.70
2023-05-14T05:10:28.621Z,7.10
2023-05-14T05:12:55.035Z,7.27
2023-05-14T05:15:21.685Z,7.50
2023-05-14T05:17:48.272Z,7.20
2023-05-14T05:20:14.857Z,7.03
2023-05-14T05:22:41.630Z,6.40
2023-05-14T05:25:09.053Z,6.33
2023-05-14T05:27:35.555Z,7.00
2023-05-14T05:30:02.356Z,7.07
2023-05-14T05:32:28.833Z,7.05
2023-05-14T05:34:55.687Z,6.68
2023-05-14T05:37:22.253Z,6.73
2023-05-14T05:39:49.297Z,6.05
2023-05-14T05:42:15.723Z,6.03
2023-05-14T05:44:42.123Z,5.90
2023-05-14T05:47:08.587Z,6.30
2023-05-14T05:49:36.804Z,6.07
2023-05-14T05:52:04.250Z,6.22
2023-05-14T05:54:32.342Z,6.60
2023-05-14T05:56:59.345Z,6.35
2023-05-14T05:59:25.744Z,6.65
2023-05-14T06:01:52.267Z,6.50
2023-05-14T06:04:18.649Z,6.72
2023-05-14T06:06:45.122Z,6.85
2023-05-14T06:09:11.586Z,7.18
2023-05-14T06:11:38.082Z,7.40
2023-05-14T06:14:04.675Z,8.83
2023-05-14T06:16:31.364Z,8.68
2023-05-14T06:18:58.064Z,7.47
2023-05-14T06:21:24.589Z,7.20
2023-05-14T06:23:51.107Z,7.35
2023-05-14T06:26:17.613Z,7.60
2023-05-14T06:28:44.799Z,7.75
2023-05-14T06:31:11.267Z,7.80
2023-05-14T06:33:37.764Z,8.15
2023-05-14T06:36:05.831Z,8.07
2023-05-14T06:38:32.435Z,7.77
2023-05-14T06:40:58.882Z,7.43
2023-05-14T06:43:25.632Z,7.82
2023-05-14T06:45:52.264Z,7.07
2023-05-14T06:48:19.940Z,7.55
2023-05-14T06:50:49.886Z,6.90
2023-05-14T06:53:16.851Z,10.77
2023-05-14T06:55:43.361Z,7.90
2023-05-14T06:58:09.878Z,7.43
2023-05-14T07:00:36.358Z,7.22
2023-05-14T07:03:02.884Z,7.33
2023-05-14T07:05:29.392Z,6.93
2023-05-14T07:07:55.863Z,7.03
2023-05-14T07:10:22.917Z,6.30
2023-05-14T07:12:49.957Z,14.93
2023-05-14T07:15:16.529Z,7.60
2023-05-14T07:17:43.161Z,6.15
2023-05-14T07:20:10.157Z,6.18
2023-05-14T07:22:36.595Z,6.32
2023-05-14T07:25:03.288Z,5.80
2023-05-14T07:27:29.742Z,7.47
2023-05-14T07:29:56.208Z,5.43
2023-05-14T07:32:24.986Z,5.05
2023-05-14T07:34:51.754Z,4.80
2023-05-14T07:37:18.628Z,5.18
2023-05-14T07:39:45.137Z,5.67
2023-05-14T07:42:13.735Z,4.80
2023-05-14T07:44:46.059Z,15.98
2023-05-14T07:47:12.605Z,5.07
2023-05-14T07:49:42.052Z,6.00
2023-05-14T07:52:08.427Z,7.50
2023-05-14T07:54:34.824Z,4.95
2023-05-14T07:57:01.327Z,4.57
2023-05-14T07:59:27.827Z,4.25
2023-05-14T08:01:54.417Z,4.35
2023-05-14T08:04:23.328Z,4.53
2023-05-14T08:06:50.059Z,4.50
2023-05-14T08:09:16.488Z,3.75
2023-05-14T08:11:42.968Z,3.83
2023-05-14T08:14:09.499Z,3.92
2023-05-14T08:16:36.261Z,4.13
2023-05-14T08:19:02.832Z,3.80
2023-05-14T08:21:29.337Z,3.67
2023-05-14T08:23:55.818Z,4.00
2023-05-14T08:26:22.856Z,4.00
2023-05-14T08:28:53.075Z,4.00
2023-05-14T08:31:22.810Z,3.38
2023-05-14T08:33:49.359Z,3.55
2023-05-14T08:36:16.233Z,4.22
2023-05-14T08:38:42.810Z,3.60
2023-05-14T08:41:11.707Z,3.73
2023-05-14T08:43:47.814Z,3.67
2023-05-14T08:46:15.355Z,3.65
2023-05-14T08:48:46.074Z,3.83
2023-05-14T08:51:14.180Z,4.15
2023-05-14T08:53:40.821Z,3.50
2023-05-14T08:56:08.796Z,3.90
2023-05-14T08:58:35.491Z,3.70
2023-05-14T09:01:02.244Z,3.38
2023-05-14T09:03:29.326Z,3.50
2023-05-14T09:06:00.320Z,4.03
2023-05-14T09:08:29.262Z,3.70
2023-05-14T09:10:55.744Z,3.63
2023-05-14T09:13:22.266Z,3.90
2023-05-14T09:15:51.185Z,3.60
2023-05-14T09:18:20.479Z,3.90
2023-05-14T09:20:47.908Z,3.80
2023-05-14T09:23:14.466Z,3.50
2023-05-14T09:25:40.976Z,3.83
2023-05-14T09:28:09.354Z,4.30
2023-05-14T09:30:37.111Z,4.00
2023-05-14T09:33:04.286Z,5.53
2023-05-14T09:35:34.243Z,4.30
2023-05-14T09:38:00.760Z,4.40
2023-05-14T09:40:27.497Z,5.00
2023-05-14T09:42:54.254Z,6.10
2023-05-14T09:45:20.816Z,5.03
2023-05-14T09:47:47.426Z,9.20
2023-05-14T09:50:14.058Z,6.75
2023-05-14T09:52:40.548Z,9.05
2023-05-14T09:55:08.014Z,6.43
2023-05-14T09:57:35.475Z,8.98
2023-05-14T10:00:02.112Z,20.30
2023-05-14T10:02:41.194Z,5.75
2023-05-14T10:05:08.427Z,4.63
2023-05-14T10:07:44.477Z,4.43
2023-05-14T10:10:15.804Z,4.22
2023-05-14T10:12:46.511Z,5.88
2023-05-14T10:15:30.091Z,4.18
2023-05-14T10:18:00.786Z,4.30
2023-05-14T10:20:28.440Z,5.20
2023-05-14T10:22:56.723Z,4.30
2023-05-14T10:25:24.047Z,4.60
2023-05-14T10:27:50.735Z,4.43
2023-05-14T10:30:23.273Z,4.40
2023-05-14T10:32:50.053Z,4.70
2023-05-14T10:35:20.317Z,4.32
2023-05-14T10:37:47.075Z,4.53
2023-05-14T10:40:14.195Z,5.10
2023-05-14T10:42:43.294Z,4.82
2023-05-14T10:45:16.145Z,4.40
2023-05-14T10:47:45.846Z,4.75
2023-05-14T10:50:15.776Z,4.20
2023-05-14T10:52:43.860Z,4.30
2023-05-14T10:55:13.678Z,4.38
2023-05-14T10:57:43.734Z,4.10
2023-05-14T11:00:12.442Z,10.68
2023-05-14T11:02:40.637Z,3.80
2023-05-14T11:05:14.312Z,4.15
2023-05-14T11:07:42.057Z,4.00
2023-05-14T11:10:10.796Z,3.93
2023-05-14T11:12:42.616Z,3.58
2023-05-14T11:15:14.500Z,3.53
2023-05-14T11:17:43.989Z,3.58
2023-05-14T11:20:11.298Z,3.90
2023-05-14T11:22:39.391Z,3.87
2023-05-14T11:25:07.126Z,3.63
2023-05-14T11:27:40.735Z,4.00
2023-05-14T11:30:18.596Z,3.75
2023-05-14T11:32:47.356Z,3.40
2023-05-14T11:35:15.331Z,3.93
2023-05-14T11:37:42.602Z,3.90
2023-05-14T11:40:14.663Z,3.80
2023-05-14T11:42:41.785Z,3.80
2023-05-14T11:45:11.970Z,3.80
2023-05-14T11:47:38.841Z,3.90
2023-05-14T11:50:07.298Z,3.90
2023-05-14T11:52:42.120Z,3.80
2023-05-14T11:55:12.939Z,3.72
2023-05-14T11:57:41.061Z,3.35
2023-05-14T12:00:16.928Z,3.40
2023-05-14T12:02:43.740Z,3.40
2023-05-14T12:05:13.624Z,3.78
2023-05-14T12:07:40.430Z,3.60
2023-05-14T12:10:07.699Z,3.58
2023-05-14T12:12:37.437Z,3.70
2023-05-14T12:15:14.304Z,3.60
2023-05-14T12:17:41.239Z,3.80
2023-05-14T12:20:12.344Z,3.55
2023-05-14T12:22:39.344Z,3.63
2023-05-14T12:25:12.494Z,3.53
2023-05-14T12:27:39.123Z,3.50
2023-05-14T12:30:20.486Z,3.65
2023-05-14T12:32:51.452Z,3.53
2023-05-14T12:35:18.518Z,3.70
2023-05-14T12:37:44.887Z,3.50
2023-05-14T12:40:11.833Z,3.83
2023-05-14T12:42:38.286Z,3.60
2023-05-14T12:45:07.808Z,3.17
2023-05-14T12:47:34.879Z,3.40
2023-05-14T12:50:01.887Z,3.40
2023-05-14T12:52:37.698Z,3.65
2023-05-14T12:55:06.966Z,8.95
2023-05-14T12:57:35.498Z,5.63
2023-05-14T13:00:02.800Z,3.70
2023-05-14T13:02:29.207Z,3.00
2023-05-14T13:04:55.719Z,3.88
2023-05-14T13:07:22.180Z,2.72
2023-05-14T13:09:48.655Z,3.08
2023-05-14T13:12:15.572Z,3.03
2023-05-14T13:14:42.141Z,3.43
2023-05-14T13:17:08.636Z,3.03
2023-05-14T13:19:35.191Z,2.92
2023-05-14T13:22:01.960Z,2.60
2023-05-14T13:24:28.695Z,3.05
2023-05-14T13:26:55.213Z,2.70
2023-05-14T13:29:21.880Z,2.40
2023-05-14T13:31:48.385Z,2.58
2023-05-14T13:34:14.941Z,2.53
2023-05-14T13:36:43.471Z,2.50
2023-05-14T13:39:14.440Z,2.70
2023-05-14T13:41:41.883Z,2.17
2023-05-14T13:44:08.403Z,2.45
2023-05-14T13:46:34.976Z,2.90
2023-05-14T13:49:01.760Z,3.30
2023-05-14T13:51:28.284Z,2.80
2023-05-14T13:56:26.102Z,3.13
2023-05-14T13:58:52.835Z,2.80
2023-05-14T14:01:19.539Z,2.50
2023-05-14T14:03:45.961Z,2.53
2023-05-14T14:06:12.597Z,2.33
2023-05-14T14:08:39.024Z,2.42
2023-05-14T14:11:05.797Z,2.30
2023-05-14T14:13:32.294Z,2.90
2023-05-14T14:15:58.821Z,3.37
2023-05-14T14:18:25.637Z,3.03
2023-05-14T14:20:52.540Z,2.75
2023-05-14T14:23:19.528Z,2.72
2023-05-14T14:25:46.091Z,2.70
2023-05-14T14:28:12.605Z,2.63
2023-05-14T14:30:39.154Z,2.60
2023-05-14T14:33:05.754Z,2.75
2023-05-14T14:35:33.374Z,2.70
2023-05-14T14:38:02.832Z,3.00
2023-05-14T14:40:29.777Z,3.10
2023-05-14T14:42:56.414Z,3.00
2023-05-14T14:45:23.175Z,3.17
2023-05-14T14:47:50.177Z,3.30
2023-05-14T14:50:16.727Z,3.10
2023-05-14T14:52:47.870Z,3.10
2023-05-14T14:55:14.338Z,3.35
2023-05-14T14:57:40.816Z,3.88
2023-05-14T15:00:07.770Z,3.33
2023-05-14T15:02:34.869Z,2.20
2023-05-14T15:05:05.354Z,4.83
2023-05-14T15:07:32.997Z,2.70
2023-05-14T15:09:59.568Z,2.30
2023-05-14T15:12:26.046Z,3.08
2023-05-14T15:14:52.487Z,2.97
2023-05-14T15:17:18.925Z,2.53
2023-05-14T15:19:45.518Z,2.22
2023-05-14T15:22:11.964Z,2.80
2023-05-14T15:24:38.408Z,2.70
2023-05-14T15:27:05.026Z,2.50
2023-05-14T15:29:32.103Z,2.60
2023-05-14T15:31:58.554Z,2.67
2023-05-14T15:34:25.541Z,2.80
2023-05-14T15:36:52.025Z,2.60
2023-05-14T15:39:18.513Z,2.40
2023-05-14T15:41:45.384Z,2.40
2023-05-14T15:44:11.878Z,2.40
2023-05-14T15:46:38.414Z,2.40
2023-05-14T15:49:04.882Z,2.40
2023-05-14T15:51:34.637Z,2.40
2023-05-14T15:54:01.194Z,2.30
2023-05-14T15:56:27.726Z,2.30
2023-05-14T15:58:54.564Z,2.15
2023-05-14T16:01:20.983Z,2.30
2023-05-14T16:03:47.508Z,2.20
2023-05-14T16:06:14.023Z,2.33
2023-05-14T16:08:40.612Z,2.13
2023-05-14T16:11:07.674Z,2.47
2023-05-14T16:13:35.754Z,2.30
2023-05-14T16:16:02.265Z,2.10
2023-05-14T16:18:29.648Z,2.10
2023-05-14T16:20:56.373Z,1.90
2023-05-14T16:23:22.838Z,2.00
2023-05-14T16:25:49.311Z,1.90
2023-05-14T16:28:15.824Z,2.20
2023-05-14T16:30:42.350Z,2.10
2023-05-14T16:33:08.900Z,2.00
2023-05-14T16:35:35.333Z,1.75
2023-05-14T16:38:01.779Z,1.88
2023-05-14T16:40:28.343Z,1.83
2023-05-14T16:42:54.766Z,1.80
2023-05-14T16:45:21.281Z,1.58
2023-05-14T16:47:47.773Z,1.60
2023-05-14T16:50:14.274Z,1.83
2023-05-14T16:52:40.821Z,1.70
2023-05-14T16:55:07.668Z,1.67
2023-05-14T16:57:34.607Z,1.60
2023-05-14T17:00:01.238Z,1.90
2023-05-14T17:02:27.781Z,2.00
2023-05-14T17:04:55.247Z,1.92
2023-05-14T17:07:21.822Z,1.80
2023-05-14T17:09:48.637Z,2.00
2023-05-14T17:12:15.054Z,1.95
2023-05-14T17:14:41.514Z,2.10
2023-05-14T17:17:08.044Z,2.10
2023-05-14T17:19:34.593Z,3.00
2023-05-14T17:22:01.010Z,2.40
2023-05-14T17:24:27.461Z,2.28
2023-05-14T17:26:53.890Z,15.05
2023-05-14T17:29:20.679Z,2.92
2023-05-14T17:31:48.313Z,2.20
2023-05-14T17:34:14.828Z,7.53
2023-05-14T17:36:41.308Z,3.53
2023-05-14T17:39:07.811Z,2.28
2023-05-14T17:41:34.263Z,2.28
2023-05-14T17:44:00.727Z,2.30
2023-05-14T17:46:27.302Z,2.40
2023-05-14T17:48:53.821Z,2.33
2023-05-14T17:51:20.454Z,2.40
2023-05-14T17:53:47.086Z,2.40
2023-05-14T17:56:13.695Z,2.20
2023-05-14T17:58:40.247Z,2.40
2023-05-14T18:01:06.808Z,2.30
2023-05-14T18:03:33.727Z,2.42
2023-05-14T18:06:00.425Z,2.60
2023-05-14T18:08:26.859Z,2.43
2023-05-14T18:10:53.392Z,2.70
2023-05-14T18:13:19.930Z,2.42
2023-05-14T18:15:46.580Z,2.97
2023-05-14T18:18:13.387Z,2.80
2023-05-14T18:20:39.978Z,2.40
2023-05-14T18:23:06.482Z,2.50
2023-05-14T18:25:33.037Z,2.75
2023-05-14T18:27:59.738Z,2.70
2023-05-14T18:30:26.395Z,2.63
2023-05-14T18:32:53.055Z,2.60
2023-05-14T18:35:19.678Z,2.80
2023-05-14T18:37:46.153Z,2.70
2023-05-14T18:40:15.603Z,2.93
2023-05-14T18:42:43.443Z,2.42
2023-05-14T18:45:10.433Z,3.17
2023-05-14T18:47:37.124Z,2.77
2023-05-14T18:50:04.822Z,2.80
2023-05-14T18:52:32.289Z,2.53
2023-05-14T18:54:58.829Z,2.60
2023-05-14T18:57:29.406Z,2.97
2023-05-14T18:59:55.877Z,3.23
2023-05-14T19:02:22.458Z,2.92
2023-05-14T19:04:52.720Z,3.05
2023-05-14T19:07:23.220Z,3.05
2023-05-14T19:09:49.834Z,2.90
2023-05-14T19:12:16.378Z,3.00
2023-05-14T19:14:42.992Z,3.05
2023-05-14T19:17:09.757Z,3.33
2023-05-14T19:19:36.629Z,3.63
2023-05-14T19:22:03.284Z,9.00
2023-05-14T19:24:30.220Z,3.70
2023-05-14T19:26:56.998Z,3.20
2023-05-14T19:29:23.615Z,4.95
2023-05-14T19:31:50.235Z,3.20
2023-05-14T19:34:16.779Z,2.90
2023-05-14T19:36:43.355Z,2.87
2023-05-14T19:39:09.947Z,2.88
2023-05-14T19:41:36.342Z,3.67
2023-05-14T19:44:03.610Z,4.30
2023-05-14T19:46:30.267Z,4.20
2023-05-14T19:48:56.752Z,3.07
2023-05-14T19:51:23.260Z,3.17
2023-05-14T19:53:49.805Z,2.65
2023-05-14T19:56:16.808Z,3.10
2023-05-14T19:58:44.468Z,3.20
2023-05-14T20:01:12.205Z,3.23
2023-05-14T20:03:41.582Z,3.30
2023-05-14T20:06:08.140Z,3.10
2023-05-14T20:08:34.737Z,3.20
2023-05-14T20:11:01.518Z,3.22
2023-05-14T20:13:28.096Z,3.43
2023-05-14T20:15:55.260Z,3.40
2023-05-14T20:18:21.933Z,3.33
2023-05-14T20:20:51.868Z,3.60
2023-05-14T20:23:21.157Z,3.40
2023-05-14T20:25:47.846Z,3.53
2023-05-14T20:28:14.422Z,3.28
2023-05-14T20:30:41.322Z,3.97
2023-05-14T20:33:08.223Z,4.45
2023-05-14T20:35:36.626Z,4.10
2023-05-14T20:38:03.764Z,4.33
2023-05-14T20:40:30.826Z,6.32
2023-05-14T20:42:57.309Z,4.10
2023-05-14T20:45:27.022Z,3.88
2023-05-14T20:47:53.729Z,3.90
2023-05-14T20:50:21.595Z,3.80
2023-05-14T20:52:51.056Z,3.90
2023-05-14T20:55:21.716Z,3.80
2023-05-14T20:57:49.597Z,3.53
2023-05-14T21:00:16.478Z,3.58
2023-05-14T21:02:43.058Z,3.90
2023-05-14T21:05:09.706Z,4.05
2023-05-14T21:07:37.202Z,3.70
2023-05-14T21:10:04.247Z,3.63
2023-05-14T21:12:30.735Z,3.95
2023-05-14T21:14:57.180Z,3.70
2023-05-14T21:17:24.423Z,4.40
2023-05-14T21:19:50.908Z,4.10
2023-05-14T21:22:18.852Z,3.85
2023-05-14T21:24:45.324Z,4.25
2023-05-14T21:27:11.723Z,3.83
2023-05-14T21:29:39.372Z,4.05
2023-05-14T21:32:06.207Z,3.92
2023-05-14T21:34:32.747Z,4.05
2023-05-14T21:36:59.231Z,5.18
2023-05-14T21:39:25.634Z,4.33
2023-05-14T21:41:52.151Z,4.55
2023-05-14T21:44:18.762Z,4.20
2023-05-14T21:46:45.265Z,4.03
2023-05-14T21:49:11.685Z,3.72
2023-05-14T21:51:38.231Z,4.30
2023-05-14T21:54:05.016Z,5.70
2023-05-14T21:56:31.496Z,6.25
2023-05-14T21:58:57.914Z,5.30
2023-05-14T22:01:24.388Z,5.72
2023-05-14T22:03:50.880Z,5.50
2023-05-14T22:06:17.371Z,4.93
2023-05-14T22:08:43.766Z,4.38
2023-05-14T22:11:10.267Z,4.20
2023-05-14T22:13:42.771Z,4.35
2023-05-14T22:16:13.296Z,4.60
2023-05-14T22:18:40.387Z,4.35
2023-05-14T22:21:06.887Z,4.13
2023-05-14T22:23:33.339Z,3.83
2023-05-14T22:25:59.886Z,4.28
2023-05-14T22:28:26.493Z,4.17
2023-05-14T22:30:53.130Z,4.60
2023-05-14T22:33:19.503Z,4.10
2023-05-14T22:35:46.282Z,4.30
2023-05-14T22:38:13.783Z,4.32
2023-05-14T22:40:40.216Z,4.10
2023-05-14T22:43:06.674Z,3.97
2023-05-14T22:45:33.271Z,4.05
2023-05-14T22:47:59.774Z,4.50
2023-05-14T22:50:26.748Z,4.70
2023-05-14T22:52:53.119Z,4.33
2023-05-14T22:55:19.532Z,4.70
2023-05-14T22:57:46.021Z,4.45
2023-05-14T23:00:13.128Z,4.50
2023-05-14T23:02:39.590Z,4.45
2023-05-14T23:05:07.812Z,4.33
2023-05-14T23:07:35.042Z,4.35
2023-05-14T23:10:01.897Z,4.43
2023-05-14T23:12:28.500Z,4.60
2023-05-14T23:14:55.036Z,5.35
2023-05-14T23:17:21.572Z,4.80
2023-05-14T23:19:48.161Z,4.05
2023-05-14T23:22:14.587Z,10.38
2023-05-14T23:24:40.959Z,6.70
2023-05-14T23:27:07.663Z,5.40
2023-05-14T23:29:34.117Z,4.77
2023-05-14T23:32:00.634Z,4.60
2023-05-14T23:34:27.122Z,4.40
2023-05-14T23:36:53.717Z,4.95
2023-05-14T23:39:20.352Z,4.78
2023-05-14T23:41:46.799Z,4.80
2023-05-14T23:44:13.287Z,4.63
2023-05-14T23:46:39.720Z,4.88
2023-05-14T23:49:06.276Z,4.75
2023-05-14T23:51:32.731Z,5.03
2023-05-14T23:53:59.182Z,4.43
2023-05-14T23:56:26.238Z,4.18
2023-05-14T23:58:53.012Z,5.50
